createdAt,value
2018-05-13T00:29:10.323Z,19.80
2018-05-13T00:34:12.981Z,18.30
2018-05-13T00:39:16.693Z,18.40
2018-05-13T00:44:20.419Z,18.30
2018-05-13T00:49:24.009Z,18.20
2018-05-13T00:54:38.665Z,18.10
2018-05-13T00:59:42.399Z,17.70
2018-05-13T01:04:45.905Z,17.70
2018-05-13T01:09:49.384Z,17.60
2018-05-13T01:14:55.393Z,17.60
2018-05-13T01:19:59.004Z,17.30
2018-05-13T01:25:02.584Z,17.30
2018-05-13T01:30:07.772Z,17.20
2018-05-13T01:35:10.559Z,17.00
2018-05-13T01:40:14.275Z,17.00
2018-05-13T01:45:17.067Z,16.80
2018-05-13T01:50:19.751Z,16.60
2018-05-13T01:55:27.469Z,16.80
2018-05-13T02:00:30.374Z,16.70
2018-05-13T02:05:33.749Z,16.80
2018-05-13T02:10:36.493Z,16.80
2018-05-13T02:15:54.194Z,16.80
2018-05-13T02:20:59.402Z,16.60
2018-05-13T02:26:02.209Z,16.50
2018-05-13T02:31:06.649Z,16.70
2018-05-13T02:36:09.818Z,16.80
2018-05-13T02:41:13.385Z,16.90
2018-05-13T02:46:16.316Z,16.70
2018-05-13T02:51:19.388Z,16.50
2018-05-13T02:56:22.228Z,16.30
2018-05-13T03:01:25.456Z,16.10
2018-05-13T03:06:31.090Z,16.20
2018-05-13T03:11:34.260Z,16.10
2018-05-13T03:16:37.204Z,16.20
2018-05-13T03:21:39.921Z,16.30
2018-05-13T03:26:42.747Z,16.20
2018-05-13T03:31:45.925Z,16.40
2018-05-13T03:36:48.642Z,16.70
2018-05-13T03:41:51.426Z,16.80
2018-05-13T03:46:55.382Z,16.70
2018-05-13T03:51:57.985Z,16.60
2018-05-13T03:57:00.758Z,16.50
2018-05-13T04:02:06.530Z,16.50
2018-05-13T04:07:10.971Z,16.60
2018-05-13T04:12:26.608Z,16.50
2018-05-13T04:17:29.532Z,16.50
2018-05-13T04:22:33.168Z,16.30
2018-05-13T04:27:36.943Z,16.30
2018-05-13T04:32:41.891Z,16.30
2018-05-13T04:37:46.756Z,16.30
2018-05-13T04:42:50.780Z,16.60
2018-05-13T04:47:54.602Z,16.70
2018-05-13T04:52:57.335Z,16.90
2018-05-13T04:58:01.023Z,17.00
2018-05-13T05:03:03.645Z,17.10
2018-05-13T05:08:07.448Z,16.90
2018-05-13T05:13:10.453Z,16.70
2018-05-13T05:18:21.747Z,16.40
2018-05-13T05:23:27.323Z,16.50
2018-05-13T05:28:31.448Z,16.50
2018-05-13T05:33:34.193Z,16.50
2018-05-13T05:38:37.496Z,16.60
2018-05-13T05:43:46.721Z,16.50
2018-05-13T05:48:51.276Z,16.60
2018-05-13T05:54:06.204Z,16.60
2018-05-13T05:59:12.166Z,16.90
2018-05-13T06:09:44.471Z,17.20
2018-05-13T06:14:48.356Z,17.00
2018-05-13T06:19:51.835Z,17.00
2018-05-13T06:24:58.707Z,16.90
2018-05-13T06:30:02.327Z,17.20
2018-05-13T06:35:05.926Z,17.20
2018-05-13T06:40:09.379Z,17.10
2018-05-13T06:45:33.383Z,17.10
2018-05-13T06:50:44.235Z,17.40
2018-05-13T07:01:31.950Z,17.20
2018-05-13T07:06:40.364Z,17.20
2018-05-13T07:11:54.161Z,17.20
2018-05-13T07:17:00.063Z,17.20
2018-05-13T07:22:04.309Z,17.20
2018-05-13T07:27:07.999Z,17.40
2018-05-13T07:32:10.724Z,17.70
2018-05-13T07:37:14.425Z,17.80
2018-05-13T07:42:18.252Z,17.80
2018-05-13T07:47:24.127Z,17.90
2018-05-13T07:52:26.758Z,18.20
2018-05-13T07:57:30.349Z,18.20
2018-05-13T08:02:33.561Z,18.50
2018-05-13T08:07:51.070Z,18.80
2018-05-13T08:13:05.535Z,18.70
2018-05-13T08:18:10.864Z,18.60
2018-05-13T08:23:13.861Z,19.10
2018-05-13T08:28:17.786Z,19.20
2018-05-13T08:33:20.478Z,19.30
2018-05-13T08:44:11.055Z,20.00
2018-05-13T08:49:14.821Z,19.90
2018-05-13T08:54:17.809Z,19.90
2018-05-13T08:59:21.096Z,19.70
2018-05-13T09:04:23.806Z,19.80
2018-05-13T09:09:26.474Z,19.70
2018-05-13T09:14:29.191Z,20.30
2018-05-13T09:19:32.884Z,21.10
2018-05-13T09:24:40.136Z,21.20
2018-05-13T09:29:43.342Z,21.20
2018-05-13T09:40:27.043Z,20.80
2018-05-13T09:45:30.257Z,20.80
2018-05-13T09:50:33.674Z,20.60
2018-05-13T09:55:39.138Z,20.80
2018-05-13T10:00:42.280Z,21.40
2018-05-13T10:05:45.058Z,21.70
2018-05-13T10:10:48.779Z,21.70
2018-05-13T10:15:51.478Z,21.90
2018-05-13T10:20:54.955Z,21.70
2018-05-13T10:25:57.722Z,21.70
2018-05-13T10:31:01.667Z,22.10
2018-05-13T10:36:05.963Z,22.50
2018-05-13T10:41:09.375Z,22.20
2018-05-13T10:46:12.089Z,22.10
2018-05-13T10:51:14.887Z,22.40
2018-05-13T10:56:25.096Z,23.00
2018-05-13T11:01:29.311Z,23.80
2018-05-13T11:06:32.208Z,23.60
2018-05-13T11:11:36.096Z,23.60
2018-05-13T11:16:39.761Z,24.50
2018-05-13T11:21:46.152Z,24.50
2018-05-13T11:26:48.943Z,24.60
2018-05-13T11:31:51.655Z,24.10
2018-05-13T11:36:54.380Z,24.00
2018-05-13T11:41:57.872Z,24.10
2018-05-13T11:47:02.183Z,24.10
2018-05-13T11:52:05.129Z,24.20
2018-05-13T11:57:09.050Z,23.90
2018-05-13T12:02:26.150Z,23.70
2018-05-13T12:12:58.447Z,23.60
2018-05-13T12:18:03.575Z,23.00
2018-05-13T12:23:07.059Z,22.90
2018-05-13T12:28:10.965Z,23.10
2018-05-13T12:33:15.067Z,23.40
2018-05-13T12:38:19.610Z,23.60
2018-05-13T12:43:22.406Z,23.60
2018-05-13T12:48:26.333Z,23.70
2018-05-13T12:53:30.132Z,23.80
2018-05-13T12:58:35.014Z,23.50
2018-05-13T13:03:38.433Z,23.50
2018-05-13T13:08:41.239Z,23.80
2018-05-13T13:13:45.482Z,24.20
2018-05-13T13:18:51.140Z,24.20
2018-05-13T13:34:11.120Z,23.10
2018-05-13T13:39:13.988Z,23.30
2018-05-13T13:44:17.736Z,23.50
2018-05-13T13:49:22.435Z,24.20
2018-05-13T13:59:42.474Z,24.60
2018-05-13T14:04:46.250Z,24.50
2018-05-13T14:09:52.863Z,24.10
2018-05-13T14:14:58.225Z,24.10
2018-05-13T14:20:01.161Z,24.10
2018-05-13T14:25:03.978Z,23.70
2018-05-13T14:30:07.455Z,23.20
2018-05-13T14:35:10.360Z,23.10
2018-05-13T14:51:40.343Z,23.60
2018-05-13T14:56:44.372Z,23.00
2018-05-13T15:01:47.283Z,23.00
2018-05-13T15:06:50.125Z,23.20
2018-05-13T15:11:53.646Z,23.10
2018-05-13T15:16:57.881Z,23.00
2018-05-13T15:22:01.413Z,23.00
2018-05-13T15:27:04.805Z,23.10
2018-05-13T15:32:09.499Z,23.00
2018-05-13T15:37:13.590Z,22.90
2018-05-13T15:42:16.932Z,23.00
2018-05-13T15:47:20.848Z,22.80
2018-05-13T15:52:24.531Z,22.90
2018-05-13T15:57:27.373Z,22.90
2018-05-13T16:02:30.882Z,22.80
2018-05-13T16:07:33.548Z,22.60
2018-05-13T16:12:36.207Z,22.60
2018-05-13T16:17:39.451Z,22.60
2018-05-13T16:22:42.107Z,22.40
2018-05-13T16:27:45.590Z,22.20
2018-05-13T16:32:48.260Z,22.10
2018-05-13T16:37:51.028Z,22.20
2018-05-13T16:43:14.484Z,22.30
2018-05-13T16:53:47.557Z,21.30
2018-05-13T16:59:16.014Z,20.60
2018-05-13T17:04:28.184Z,20.50
2018-05-13T17:09:33.606Z,20.00
2018-05-13T17:14:36.669Z,19.60
2018-05-13T17:19:39.427Z,18.80
2018-05-13T17:24:42.273Z,18.50
2018-05-13T17:29:47.644Z,18.40
2018-05-13T17:34:51.700Z,18.10
2018-05-13T17:39:55.090Z,17.70
2018-05-13T17:44:58.705Z,17.70
2018-05-13T17:50:02.753Z,17.30
2018-05-13T17:55:07.183Z,17.00
2018-05-13T18:00:11.355Z,17.00
2018-05-13T18:05:33.247Z,17.00
2018-05-13T18:10:52.726Z,16.70
2018-05-13T18:15:56.284Z,16.40
2018-05-13T18:21:00.480Z,16.20
2018-05-13T18:26:07.219Z,16.10
2018-05-13T18:31:23.373Z,16.00
2018-05-13T18:36:40.847Z,16.10
2018-05-13T18:41:49.970Z,16.10
2018-05-13T18:46:53.898Z,15.90
2018-05-13T18:51:58.316Z,16.00
2018-05-13T18:57:01.159Z,15.80
2018-05-13T19:02:05.070Z,15.70
2018-05-13T19:07:13.041Z,15.70
2018-05-13T19:12:16.406Z,15.60
2018-05-13T19:17:19.388Z,15.30
2018-05-13T19:22:23.211Z,15.30
2018-05-13T19:27:26.730Z,15.50
2018-05-13T19:32:29.520Z,15.70
2018-05-13T19:37:34.711Z,15.60
2018-05-13T19:42:40.569Z,15.20
2018-05-13T19:47:43.678Z,14.90
2018-05-13T19:52:46.583Z,14.60
2018-05-13T19:57:50.527Z,14.20
2018-05-13T20:02:53.642Z,14.10
2018-05-13T20:08:12.892Z,13.90
2018-05-13T20:18:56.361Z,13.50
2018-05-13T20:24:17.002Z,13.60
2018-05-13T20:34:58.728Z,13.70
2018-05-13T20:40:02.410Z,13.70
2018-05-13T20:45:07.687Z,13.30
2018-05-13T20:50:11.056Z,12.90
2018-05-13T20:55:18.641Z,12.80
2018-05-13T21:00:22.448Z,12.80
2018-05-13T21:05:26.539Z,12.90
2018-05-13T21:10:30.629Z,12.80
2018-05-13T21:15:41.701Z,12.70
2018-05-13T21:20:44.493Z,12.50
2018-05-13T21:25:47.280Z,12.70
2018-05-13T21:30:50.612Z,12.60
2018-05-13T21:35:55.463Z,12.80
2018-05-13T21:40:58.279Z,12.80
2018-05-13T21:46:01.950Z,12.70
2018-05-13T21:51:04.897Z,12.70
2018-05-13T21:56:07.969Z,12.70
2018-05-13T22:01:10.591Z,12.40
2018-05-13T22:06:13.191Z,12.40
2018-05-13T22:11:16.073Z,12.40
2018-05-13T22:16:18.643Z,12.50
2018-05-13T22:21:21.231Z,12.50
2018-05-13T22:26:24.252Z,12.30
2018-05-13T22:31:26.927Z,12.30
2018-05-13T22:36:31.434Z,12.10
2018-05-13T22:41:34.004Z,12.30
2018-05-13T22:46:36.557Z,12.20
2018-05-13T22:51:39.882Z,12.00
2018-05-13T22:56:43.665Z,12.00
2018-05-13T23:01:46.243Z,11.80
2018-05-13T23:07:03.411Z,11.70
2018-05-13T23:12:05.990Z,11.80
2018-05-13T23:17:08.552Z,12.10
2018-05-13T23:22:17.299Z,12.10
2018-05-13T23:27:20.397Z,12.00
2018-05-13T23:32:22.958Z,11.90
2018-05-13T23:37:25.532Z,11.90
2018-05-13T23:42:28.091Z,11.80
2018-05-13T23:47:31.338Z,12.00
2018-05-13T23:52:33.893Z,12.20
2018-05-13T23:57:37.697Z,12.00
